createdAt,value
2018-04-02T00:00:16.791Z,0.00
2018-04-02T00:01:16.482Z,0.00
2018-04-02T00:02:16.681Z,0.00
2018-04-02T00:03:16.698Z,0.00
2018-04-02T00:04:16.614Z,0.00
2018-04-02T00:05:16.686Z,0.00
2018-04-02T00:06:25.306Z,0.00
2018-04-02T00:08:10.022Z,0.00
2018-04-02T00:09:09.957Z,0.00
2018-04-02T00:10:09.724Z,0.00
2018-04-02T00:11:09.940Z,0.00
2018-04-02T00:12:09.839Z,0.00
2018-04-02T00:13:09.814Z,0.00
2018-04-02T00:14:09.840Z,0.00
2018-04-02T00:15:09.792Z,0.00
2018-04-02T00:16:09.662Z,0.00
2018-04-02T00:17:19.468Z,0.00
2018-04-02T00:19:03.135Z,0.00
2018-04-02T00:20:02.988Z,0.00
2018-04-02T00:21:03.119Z,0.00
2018-04-02T00:22:03.089Z,0.00
2018-04-02T00:23:03.066Z,0.00
2018-04-02T00:24:03.046Z,0.00
2018-04-02T00:25:02.991Z,0.00
2018-04-02T00:26:02.862Z,0.00
2018-04-02T00:27:02.979Z,0.00
2018-04-02T00:28:02.921Z,0.00
2018-04-02T00:29:12.436Z,0.00
2018-04-02T00:30:56.277Z,0.00
2018-04-02T00:31:56.203Z,0.00
2018-04-02T00:33:05.420Z,0.00
2018-04-02T00:34:49.624Z,0.00
2018-04-02T00:35:49.631Z,0.00
2018-04-02T00:36:49.534Z,0.00
2018-04-02T00:37:49.482Z,0.00
2018-04-02T00:38:49.460Z,0.00
2018-04-02T00:39:49.331Z,0.00
2018-04-02T00:40:49.460Z,0.00
2018-04-02T00:41:49.414Z,0.00
2018-04-02T00:42:49.421Z,0.00
2018-04-02T00:43:49.421Z,0.00
2018-04-02T00:44:49.396Z,0.00
2018-04-02T00:45:49.204Z,0.00
2018-04-02T00:46:58.743Z,0.00
2018-04-02T00:48:42.725Z,0.00
2018-04-02T00:49:42.719Z,0.00
2018-04-02T00:50:42.378Z,0.00
2018-04-02T00:51:42.603Z,0.00
2018-04-02T00:52:42.610Z,0.00
2018-04-02T00:53:42.649Z,0.00
2018-04-02T00:54:42.572Z,0.00
2018-04-02T00:55:42.575Z,0.00
2018-04-02T00:56:51.818Z,0.00
2018-04-02T00:58:35.978Z,0.00
2018-04-02T00:59:35.885Z,0.00
2018-04-02T01:00:35.787Z,0.00
2018-04-02T01:01:35.863Z,0.00
2018-04-02T01:02:35.837Z,0.00
2018-04-02T01:03:35.831Z,0.00
2018-04-02T01:04:35.542Z,0.00
2018-04-02T01:05:35.754Z,0.00
2018-04-02T01:06:35.800Z,0.00
2018-04-02T01:07:35.697Z,0.00
2018-04-02T01:08:35.490Z,0.00
2018-04-02T01:09:35.343Z,0.00
2018-04-02T01:10:35.407Z,0.00
2018-04-02T01:11:35.648Z,0.00
2018-04-02T01:12:35.647Z,0.00
2018-04-02T01:13:35.648Z,0.00
2018-04-02T01:14:35.625Z,0.00
2018-04-02T01:15:35.564Z,0.00
2018-04-02T01:16:35.535Z,0.00
2018-04-02T01:17:35.520Z,0.00
2018-04-02T01:18:35.506Z,0.00
2018-04-02T01:19:35.471Z,0.00
2018-04-02T01:20:35.151Z,0.00
2018-04-02T01:21:35.536Z,0.00
2018-04-02T06:41:44.880Z,185.63
2018-04-02T06:42:35.665Z,185.63
2018-04-02T06:43:35.572Z,185.63
2018-04-02T06:44:35.504Z,185.63
2018-04-02T06:45:35.552Z,185.63
2018-04-02T06:46:35.701Z,191.25
2018-04-02T06:47:35.504Z,191.25
2018-04-02T06:48:35.293Z,196.88
2018-04-02T06:49:35.665Z,208.13
2018-04-02T06:50:36.072Z,219.38
2018-04-02T06:51:35.456Z,236.25
2018-04-02T06:52:35.101Z,253.13
2018-04-02T06:53:35.010Z,270.00
2018-04-02T06:54:44.790Z,286.88
2018-04-02T06:56:38.747Z,315.00
2018-04-02T06:57:28.628Z,315.00
2018-04-02T06:58:28.471Z,320.63
2018-04-02T06:59:37.329Z,320.63
2018-04-02T07:01:21.795Z,326.25
2018-04-02T07:02:21.694Z,331.88
2018-04-02T07:03:21.712Z,331.88
2018-04-02T07:04:21.893Z,337.50
2018-04-02T07:05:21.811Z,348.75
2018-04-02T07:06:21.513Z,360.00
2018-04-02T07:07:21.496Z,365.63
2018-04-02T07:08:21.477Z,376.88
2018-04-02T07:09:21.455Z,393.75
2018-04-02T07:10:21.464Z,405.00
2018-04-02T07:11:21.416Z,416.25
2018-04-02T07:12:21.419Z,433.13
2018-04-02T07:13:21.393Z,450.00
2018-04-02T07:14:21.358Z,455.63
2018-04-02T07:15:21.355Z,472.50
2018-04-02T07:16:21.336Z,489.38
2018-04-02T07:17:21.360Z,500.63
2018-04-02T07:18:21.286Z,506.25
2018-04-02T07:19:21.288Z,511.88
2018-04-02T07:20:21.284Z,517.50
2018-04-02T07:21:21.268Z,534.38
2018-04-02T07:22:21.240Z,534.38
2018-04-02T07:23:21.213Z,534.38
2018-04-02T07:24:21.179Z,534.38
2018-04-02T07:25:21.168Z,545.63
2018-04-02T07:26:21.156Z,545.63
2018-04-02T07:27:21.130Z,551.25
2018-04-02T07:28:21.108Z,551.25
2018-04-02T07:29:21.102Z,551.25
2018-04-02T07:30:21.082Z,556.88
2018-04-02T07:31:21.070Z,562.50
2018-04-02T07:32:21.045Z,568.13
2018-04-02T07:33:21.060Z,579.38
2018-04-02T07:34:21.018Z,579.38
2018-04-02T07:35:21.024Z,585.00
2018-04-02T07:36:20.990Z,585.00
2018-04-02T07:37:20.996Z,596.25
2018-04-02T07:38:20.960Z,590.63
2018-04-02T07:39:20.929Z,596.25
2018-04-02T07:40:20.927Z,596.25
2018-04-02T07:41:20.899Z,601.88
2018-04-02T07:42:20.928Z,607.50
2018-04-02T07:43:20.887Z,613.13
2018-04-02T07:44:20.857Z,618.75
2018-04-02T07:45:20.836Z,624.38
2018-04-02T07:46:20.844Z,630.00
2018-04-02T07:47:20.807Z,630.00
2018-04-02T07:48:20.797Z,635.63
2018-04-02T07:49:20.827Z,646.88
2018-04-02T07:50:20.800Z,658.13
2018-04-02T07:51:20.736Z,669.38
2018-04-02T07:52:20.717Z,675.00
2018-04-02T07:53:20.714Z,675.00
2018-04-02T07:54:20.677Z,680.63
2018-04-02T07:55:20.665Z,686.25
2018-04-02T07:56:20.670Z,691.88
2018-04-02T07:57:20.640Z,703.13
2018-04-02T07:58:20.627Z,714.38
2018-04-02T07:59:20.600Z,720.00
2018-04-02T08:00:20.600Z,714.38
2018-04-02T08:01:20.597Z,714.38
2018-04-02T08:02:20.559Z,725.63
2018-04-02T08:03:20.549Z,736.88
2018-04-02T08:04:20.556Z,742.50
2018-04-02T08:05:20.520Z,742.50
2018-04-02T08:06:20.498Z,748.13
2018-04-02T08:07:20.482Z,731.25
2018-04-02T08:08:20.470Z,720.00
2018-04-02T08:09:20.483Z,731.25
2018-04-02T08:10:20.435Z,742.50
2018-04-02T08:11:20.432Z,753.75
2018-04-02T08:12:20.445Z,770.63
2018-04-02T08:13:20.390Z,770.63
2018-04-02T08:14:20.378Z,770.63
2018-04-02T08:15:20.379Z,770.63
2018-04-02T08:16:20.339Z,781.88
2018-04-02T08:17:20.345Z,776.25
2018-04-02T08:18:20.312Z,787.50
2018-04-02T08:19:20.288Z,793.13
2018-04-02T08:20:20.295Z,810.00
2018-04-02T08:21:20.275Z,821.25
2018-04-02T08:22:20.265Z,832.50
2018-04-02T08:23:20.246Z,838.13
2018-04-02T08:24:20.231Z,849.38
2018-04-02T08:25:20.234Z,855.00
2018-04-02T08:26:20.208Z,838.13
2018-04-02T08:27:20.179Z,832.50
2018-04-02T08:28:20.250Z,838.13
2018-04-02T08:29:20.157Z,843.75
2018-04-02T08:30:20.185Z,849.38
2018-04-02T08:31:20.132Z,855.00
2018-04-02T08:32:20.119Z,860.63
2018-04-02T08:33:20.112Z,871.88
2018-04-02T08:34:20.084Z,877.50
2018-04-02T08:35:20.096Z,894.38
2018-04-02T08:36:20.054Z,900.00
2018-04-02T08:37:20.049Z,916.88
2018-04-02T08:38:20.028Z,945.00
2018-04-02T08:39:20.024Z,961.88
2018-04-02T08:40:20.004Z,967.50
2018-04-02T08:41:19.991Z,967.50
2018-04-02T08:42:20.004Z,961.88
2018-04-02T08:43:19.997Z,961.88
2018-04-02T08:44:20.022Z,945.00
2018-04-02T08:45:19.953Z,928.13
2018-04-02T08:46:19.932Z,916.88
2018-04-02T08:47:19.940Z,911.25
2018-04-02T08:48:19.920Z,894.38
2018-04-02T08:49:19.889Z,883.13
2018-04-02T08:50:19.877Z,871.88
2018-04-02T08:51:19.853Z,871.88
2018-04-02T08:52:19.854Z,883.13
2018-04-02T08:53:19.852Z,866.25
2018-04-02T08:54:19.818Z,843.75
2018-04-02T08:55:19.800Z,815.63
2018-04-02T08:56:19.800Z,770.63
2018-04-02T08:57:19.778Z,720.00
2018-04-02T08:58:19.766Z,714.38
2018-04-02T08:59:19.779Z,686.25
2018-04-02T09:00:19.737Z,669.38
2018-04-02T09:01:19.724Z,691.88
2018-04-02T09:02:19.708Z,635.63
2018-04-02T09:03:19.710Z,596.25
2018-04-02T09:04:19.705Z,579.38
2018-04-02T09:05:19.670Z,568.13
2018-04-02T09:06:19.679Z,669.38
2018-04-02T09:07:19.650Z,860.63
2018-04-02T09:08:19.635Z,1344.38
2018-04-02T09:09:19.641Z,1743.75
2018-04-02T09:10:19.610Z,1597.50
2018-04-02T09:11:19.600Z,1811.25
2018-04-02T09:12:19.602Z,2238.75
2018-04-02T09:13:19.617Z,2390.63
2018-04-02T09:14:19.581Z,2508.75
2018-04-02T09:15:19.565Z,2576.25
2018-04-02T09:16:19.569Z,2503.13
2018-04-02T09:17:19.538Z,2390.63
2018-04-02T09:18:19.555Z,1980.00
2018-04-02T09:19:19.542Z,1276.88
2018-04-02T09:20:19.529Z,1783.13
2018-04-02T09:21:19.504Z,2891.25
2018-04-02T09:22:19.494Z,2868.75
2018-04-02T09:23:19.500Z,2919.38
2018-04-02T09:24:19.474Z,3611.25
2018-04-02T09:25:19.471Z,2677.50
2018-04-02T09:26:19.475Z,894.38
2018-04-02T09:27:19.454Z,618.75
2018-04-02T09:28:19.461Z,1338.75
2018-04-02T09:29:19.436Z,2593.13
2018-04-02T09:30:19.429Z,2632.50
2018-04-02T09:31:19.419Z,2086.88
2018-04-02T09:32:19.403Z,1057.50
2018-04-02T09:33:19.406Z,686.25
2018-04-02T09:34:19.391Z,894.38
2018-04-02T09:35:19.389Z,1316.25
2018-04-02T09:36:19.371Z,1732.50
2018-04-02T09:37:19.371Z,1119.38
2018-04-02T09:38:19.373Z,995.63
2018-04-02T09:39:19.368Z,1513.13
2018-04-02T09:40:19.343Z,1575.00
2018-04-02T09:41:19.329Z,1344.38
2018-04-02T09:42:19.353Z,961.88
2018-04-02T09:43:19.313Z,1215.00
2018-04-02T09:44:19.304Z,1794.38
2018-04-02T09:45:19.289Z,1985.63
2018-04-02T09:46:19.287Z,1715.63
2018-04-02T09:47:19.284Z,1558.13
2018-04-02T09:48:19.273Z,1805.63
2018-04-02T09:49:19.258Z,1800.00
2018-04-02T09:50:19.261Z,1608.75
2018-04-02T09:51:19.273Z,1546.88
2018-04-02T09:52:19.244Z,1653.75
2018-04-02T09:53:19.238Z,1963.13
2018-04-02T09:54:19.308Z,1963.13
2018-04-02T09:55:19.216Z,1783.13
2018-04-02T09:56:19.255Z,1473.75
2018-04-02T09:57:19.214Z,1023.75
2018-04-02T09:58:19.225Z,1355.63
2018-04-02T09:59:19.261Z,1760.63
2018-04-02T10:00:19.187Z,1760.63
2018-04-02T10:01:19.194Z,1743.75
2018-04-02T10:02:19.200Z,1805.63
2018-04-02T10:03:19.180Z,1625.63
2018-04-02T10:04:19.162Z,1321.88
2018-04-02T10:05:19.167Z,1265.63
2018-04-02T10:06:19.167Z,1293.75
2018-04-02T10:07:19.152Z,1125.00
2018-04-02T10:08:19.148Z,1001.25
2018-04-02T10:09:19.152Z,1462.50
2018-04-02T10:10:19.237Z,1766.25
2018-04-02T10:11:19.185Z,1884.38
2018-04-02T10:12:19.126Z,1957.50
2018-04-02T10:13:19.107Z,2092.50
2018-04-02T10:14:19.116Z,2075.63
2018-04-02T10:15:19.139Z,2115.00
2018-04-02T10:16:19.110Z,2008.13
2018-04-02T10:17:19.113Z,1946.25
2018-04-02T10:18:19.104Z,1777.50
2018-04-02T10:19:19.108Z,1861.88
2018-04-02T10:20:19.107Z,1918.13
2018-04-02T10:21:19.091Z,1946.25
2018-04-02T10:22:19.084Z,1805.63
2018-04-02T10:23:19.084Z,1788.75
2018-04-02T10:24:19.068Z,1783.13
2018-04-02T10:25:19.074Z,1828.13
2018-04-02T10:26:19.126Z,1816.88
2018-04-02T10:27:19.081Z,1890.00
2018-04-02T10:28:19.071Z,1839.38
2018-04-02T10:29:19.100Z,1839.38
2018-04-02T10:30:19.065Z,1794.38
2018-04-02T10:31:19.062Z,1974.38
2018-04-02T10:32:19.058Z,2053.13
2018-04-02T10:33:19.068Z,1963.13
2018-04-02T10:34:19.052Z,2008.13
2018-04-02T10:35:19.078Z,1957.50
2018-04-02T10:36:19.042Z,1749.38
2018-04-02T10:37:19.096Z,1563.75
2018-04-02T10:38:19.034Z,1597.50
2018-04-02T10:39:19.029Z,1591.88
2018-04-02T10:40:19.058Z,1665.00
2018-04-02T10:41:19.033Z,1777.50
2018-04-02T10:42:19.026Z,1845.00
2018-04-02T10:43:19.048Z,1771.88
2018-04-02T10:44:19.046Z,1895.63
2018-04-02T10:45:19.029Z,1974.38
2018-04-02T10:46:19.013Z,1895.63
2018-04-02T10:47:19.004Z,1822.50
2018-04-02T10:48:19.007Z,1867.50
2018-04-02T10:49:19.022Z,1957.50
2018-04-02T10:50:19.002Z,1906.88
2018-04-02T10:51:19.026Z,1839.38
2018-04-02T10:52:19.010Z,1867.50
2018-04-02T10:53:19.007Z,1850.63
2018-04-02T10:54:19.017Z,1861.88
2018-04-02T10:55:18.988Z,1828.13
2018-04-02T10:56:19.006Z,1833.75
2018-04-02T10:57:18.985Z,1816.88
2018-04-02T10:58:18.988Z,1305.00
2018-04-02T10:59:18.994Z,1389.38
2018-04-02T11:00:18.997Z,1535.63
2018-04-02T11:01:18.988Z,1710.00
2018-04-02T11:02:18.987Z,1642.50
2018-04-02T11:03:18.985Z,1625.63
2018-04-02T11:04:18.984Z,1580.63
2018-04-02T11:05:18.981Z,1546.88
2018-04-02T11:06:19.007Z,1496.25
2018-04-02T11:07:18.998Z,1501.88
2018-04-02T11:08:18.997Z,1456.88
2018-04-02T11:09:18.994Z,1440.00
2018-04-02T11:10:18.988Z,1395.00
2018-04-02T11:11:19.006Z,1355.63
2018-04-02T11:12:18.997Z,1265.63
2018-04-02T11:13:18.978Z,1305.00
2018-04-02T11:14:18.997Z,1411.88
2018-04-02T11:15:19.000Z,1254.38
2018-04-02T11:16:18.994Z,1231.88
2018-04-02T11:17:18.988Z,1141.88
2018-04-02T11:18:18.994Z,1237.50
2018-04-02T11:19:19.014Z,1305.00
2018-04-02T11:20:18.994Z,1271.25
2018-04-02T11:21:18.988Z,1305.00
2018-04-02T11:22:18.994Z,1305.00
2018-04-02T11:23:18.988Z,1293.75
2018-04-02T11:24:19.024Z,1305.00
2018-04-02T11:25:18.988Z,1321.88
2018-04-02T11:26:18.985Z,1355.63
2018-04-02T11:27:18.991Z,1350.00
2018-04-02T11:28:18.992Z,1372.50
2018-04-02T11:29:19.004Z,1395.00
2018-04-02T11:30:18.992Z,1445.63
2018-04-02T11:31:19.014Z,1501.88
2018-04-02T11:32:18.994Z,1580.63
2018-04-02T11:33:18.995Z,1687.50
2018-04-02T11:34:19.030Z,2598.75
2018-04-02T11:35:18.989Z,5636.25
2018-04-02T11:36:19.001Z,4871.25
2018-04-02T11:37:18.988Z,4848.75
2018-04-02T11:38:18.994Z,4893.75
2018-04-02T11:39:19.030Z,4893.75
2018-04-02T11:40:18.995Z,4601.25
2018-04-02T11:41:19.001Z,4708.13
2018-04-02T11:42:18.995Z,4584.38
2018-04-02T11:43:18.994Z,4381.88
2018-04-02T11:44:19.004Z,4668.75
2018-04-02T11:45:19.001Z,4393.13
2018-04-02T11:46:19.014Z,4483.13
2018-04-02T11:47:19.007Z,4415.63
2018-04-02T11:48:19.007Z,4410.00
2018-04-02T11:49:18.998Z,4758.75
2018-04-02T11:50:19.011Z,4033.13
2018-04-02T11:51:19.004Z,2666.25
2018-04-02T11:52:19.020Z,4190.63
2018-04-02T11:53:18.998Z,4500.00
2018-04-02T11:54:19.010Z,4376.25
2018-04-02T11:55:18.998Z,4291.88
2018-04-02T11:56:19.013Z,4246.88
2018-04-02T11:57:19.013Z,4050.00
2018-04-02T11:58:19.014Z,4128.75
2018-04-02T11:59:19.008Z,4117.50
2018-04-02T12:00:19.043Z,4055.63
2018-04-02T12:01:19.014Z,4168.13
2018-04-02T12:02:19.029Z,3982.50
2018-04-02T12:03:19.052Z,3841.88
2018-04-02T12:04:19.029Z,3667.50
2018-04-02T12:05:19.029Z,3729.38
2018-04-02T12:06:19.010Z,3841.88
2018-04-02T12:07:19.008Z,3903.75
2018-04-02T12:08:19.039Z,3796.88
2018-04-02T12:09:19.043Z,3954.38
2018-04-02T12:10:19.020Z,3875.63
2018-04-02T12:11:19.033Z,4021.88
2018-04-02T12:12:19.026Z,3549.38
2018-04-02T12:13:19.043Z,3555.00
2018-04-02T12:14:19.031Z,3650.63
2018-04-02T12:15:19.017Z,3110.63
2018-04-02T12:16:19.037Z,3240.00
2018-04-02T12:17:19.027Z,3487.50
2018-04-02T12:18:19.021Z,3785.63
2018-04-02T12:19:19.017Z,3408.75
2018-04-02T12:20:19.781Z,3420.00
2018-04-02T12:21:19.039Z,3751.88
2018-04-02T12:22:19.020Z,3948.75
2018-04-02T12:23:19.027Z,3920.63
2018-04-02T12:24:19.033Z,4134.38
2018-04-02T12:25:19.027Z,4258.13
2018-04-02T12:26:19.049Z,3920.63
2018-04-02T12:27:19.041Z,3695.63
2018-04-02T12:28:19.024Z,3864.38
2018-04-02T12:29:19.037Z,3661.88
2018-04-02T12:30:19.021Z,3532.50
2018-04-02T12:31:19.014Z,3453.75
2018-04-02T12:32:19.027Z,3504.38
2018-04-02T12:33:19.020Z,3420.00
2018-04-02T12:34:19.046Z,3965.63
2018-04-02T12:35:19.020Z,4016.25
2018-04-02T12:36:19.014Z,4201.88
2018-04-02T12:37:19.024Z,4044.38
2018-04-02T12:38:19.017Z,3971.25
2018-04-02T12:39:19.034Z,3971.25
2018-04-02T12:40:19.030Z,4005.00
2018-04-02T12:41:19.014Z,3875.63
2018-04-02T12:42:19.065Z,4235.63
2018-04-02T12:43:19.067Z,4263.75
2018-04-02T12:44:19.099Z,4286.25
2018-04-02T12:45:19.048Z,4263.75
2018-04-02T12:46:19.037Z,4213.13
2018-04-02T12:47:19.041Z,4275.00
2018-04-02T12:48:19.040Z,4224.38
2018-04-02T12:49:19.035Z,4269.38
2018-04-02T12:50:19.028Z,4263.75
2018-04-02T12:51:19.026Z,4432.50
2018-04-02T12:52:19.062Z,4303.13
2018-04-02T12:53:19.033Z,4263.75
2018-04-02T12:54:19.027Z,3976.88
2018-04-02T12:55:19.041Z,3993.75
2018-04-02T12:56:19.047Z,3909.38
2018-04-02T12:57:19.030Z,3673.13
2018-04-02T12:58:19.030Z,3352.50
2018-04-02T12:59:19.034Z,3330.00
2018-04-02T13:00:19.027Z,3189.38
2018-04-02T13:01:19.030Z,3211.88
2018-04-02T13:02:19.046Z,3026.25
2018-04-02T13:03:19.037Z,3076.88
2018-04-02T13:04:19.050Z,3088.13
2018-04-02T13:05:19.059Z,3003.75
2018-04-02T13:06:19.027Z,3076.88
2018-04-02T13:07:19.035Z,2986.88
2018-04-02T13:08:19.030Z,2981.25
2018-04-02T13:09:19.066Z,3054.38
2018-04-02T13:10:19.043Z,3296.25
2018-04-02T13:11:19.056Z,3380.63
2018-04-02T13:12:19.034Z,3346.88
2018-04-02T13:13:19.028Z,3256.88
2018-04-02T13:14:19.066Z,3481.88
2018-04-02T13:15:19.030Z,3712.50
2018-04-02T13:16:19.018Z,3729.38
2018-04-02T13:17:19.030Z,3538.13
2018-04-02T13:18:19.043Z,3588.75
2018-04-02T13:19:19.060Z,3133.13
2018-04-02T13:20:19.049Z,2756.25
2018-04-02T13:21:19.041Z,3245.63
2018-04-02T13:22:19.025Z,3431.25
2018-04-02T13:23:19.024Z,3375.00
2018-04-02T13:24:19.037Z,3380.63
2018-04-02T13:25:19.050Z,3200.63
2018-04-02T13:26:19.047Z,3133.13
2018-04-02T13:27:19.024Z,3015.00
2018-04-02T13:28:19.053Z,3037.50
2018-04-02T13:29:19.028Z,3240.00
2018-04-02T13:30:19.028Z,3251.25
2018-04-02T13:31:19.037Z,3144.38
2018-04-02T13:32:19.034Z,3037.50
2018-04-02T13:33:19.041Z,2913.75
2018-04-02T13:34:19.018Z,2716.88
2018-04-02T13:35:19.027Z,2598.75
2018-04-02T13:36:19.020Z,2593.13
2018-04-02T13:37:19.024Z,2576.25
2018-04-02T13:38:19.005Z,2480.63
2018-04-02T13:39:19.028Z,2671.88
2018-04-02T13:40:18.995Z,2671.88
2018-04-02T13:41:19.831Z,2840.63
2018-04-02T13:42:19.021Z,2806.88
2018-04-02T13:43:18.998Z,2750.63
2018-04-02T13:44:19.005Z,2958.75
2018-04-02T13:45:18.995Z,3211.88
2018-04-02T13:46:19.016Z,3110.63
2018-04-02T13:47:19.011Z,3088.13
2018-04-02T13:48:19.004Z,2261.25
2018-04-02T13:49:18.992Z,1935.00
2018-04-02T13:50:19.020Z,2058.75
2018-04-02T13:51:18.996Z,2030.63
2018-04-02T13:52:18.994Z,2413.13
2018-04-02T13:53:19.002Z,1625.63
2018-04-02T13:54:18.999Z,1456.88
2018-04-02T13:55:18.979Z,1113.75
2018-04-02T13:56:18.969Z,1355.63
2018-04-02T13:57:18.970Z,1282.50
2018-04-02T13:58:18.976Z,1057.50
2018-04-02T13:59:18.961Z,1271.25
2018-04-02T14:00:18.998Z,1226.25
2018-04-02T14:01:18.976Z,2086.88
2018-04-02T14:02:18.969Z,1378.13
2018-04-02T14:03:18.958Z,1996.88
2018-04-02T14:04:18.948Z,2340.00
2018-04-02T14:05:18.941Z,2424.38
2018-04-02T14:06:18.938Z,2272.50
2018-04-02T14:07:18.960Z,2272.50
2018-04-02T14:08:18.931Z,1659.38
2018-04-02T14:09:18.944Z,1524.38
2018-04-02T14:10:18.929Z,1755.00
2018-04-02T14:11:18.921Z,1125.00
2018-04-02T14:12:18.941Z,1468.13
2018-04-02T14:13:18.919Z,1968.75
2018-04-02T14:14:18.915Z,1642.50
2018-04-02T14:15:18.928Z,1620.00
2018-04-02T14:16:18.893Z,1625.63
2018-04-02T14:17:18.916Z,1591.88
2018-04-02T14:18:18.900Z,1473.75
2018-04-02T14:19:18.886Z,1479.38
2018-04-02T14:20:18.912Z,1445.63
2018-04-02T14:21:18.899Z,1445.63
2018-04-02T14:22:18.928Z,1513.13
2018-04-02T14:23:18.892Z,1479.38
2018-04-02T14:24:18.872Z,1546.88
2018-04-02T14:25:19.340Z,1749.38
2018-04-02T14:26:18.853Z,1366.88
2018-04-02T14:27:18.882Z,1434.38
2018-04-02T14:28:18.860Z,1513.13
2018-04-02T14:29:18.841Z,1023.75
2018-04-02T14:30:18.873Z,1085.63
2018-04-02T14:31:18.836Z,995.63
2018-04-02T14:32:18.834Z,1068.75
2018-04-02T14:33:18.835Z,1361.25
2018-04-02T14:34:18.837Z,1006.88
2018-04-02T14:35:18.829Z,1935.00
2018-04-02T14:36:18.810Z,838.13
2018-04-02T14:37:18.816Z,736.88
2018-04-02T14:38:18.813Z,658.13
2018-04-02T14:39:18.810Z,630.00
2018-04-02T14:40:18.812Z,607.50
2018-04-02T14:41:18.777Z,585.00
2018-04-02T14:42:18.783Z,596.25
2018-04-02T14:43:18.825Z,579.38
2018-04-02T14:44:18.787Z,556.88
2018-04-02T14:45:18.774Z,568.13
2018-04-02T14:46:18.784Z,585.00
2018-04-02T14:47:18.758Z,601.88
2018-04-02T14:48:18.736Z,618.75
2018-04-02T14:49:18.730Z,630.00
2018-04-02T14:50:18.725Z,618.75
2018-04-02T14:51:18.736Z,601.88
2018-04-02T14:52:18.710Z,590.63
2018-04-02T14:53:18.716Z,573.75
2018-04-02T14:54:18.720Z,568.13
2018-04-02T14:55:18.697Z,556.88
2018-04-02T14:56:18.748Z,528.75
2018-04-02T14:57:18.687Z,511.88
2018-04-02T14:58:18.668Z,483.75
2018-04-02T14:59:18.669Z,461.25
2018-04-02T15:00:18.668Z,466.88
2018-04-02T15:01:18.656Z,478.13
2018-04-02T15:02:18.639Z,495.00
2018-04-02T15:03:18.643Z,528.75
2018-04-02T15:04:18.645Z,568.13
2018-04-02T15:05:18.616Z,601.88
2018-04-02T15:06:18.634Z,641.25
2018-04-02T15:07:18.601Z,675.00
2018-04-02T15:08:18.604Z,697.50
2018-04-02T15:09:18.616Z,708.75
2018-04-02T15:10:18.583Z,703.13
2018-04-02T15:11:18.572Z,697.50
2018-04-02T15:12:18.559Z,691.88
2018-04-02T15:13:18.576Z,703.13
2018-04-02T15:14:18.546Z,708.75
2018-04-02T15:15:18.562Z,736.88
2018-04-02T15:16:18.586Z,742.50
2018-04-02T15:17:18.552Z,748.13
2018-04-02T15:18:18.517Z,759.38
2018-04-02T15:19:18.508Z,759.38
2018-04-02T15:20:18.514Z,748.13
2018-04-02T15:21:18.492Z,720.00
2018-04-02T15:22:18.516Z,708.75
2018-04-02T15:23:18.713Z,697.50
2018-04-02T15:24:18.495Z,686.25
2018-04-02T15:25:18.456Z,680.63
2018-04-02T15:26:18.479Z,686.25
2018-04-02T15:27:18.444Z,686.25
2018-04-02T15:28:18.434Z,686.25
2018-04-02T15:29:18.440Z,675.00
2018-04-02T15:30:18.418Z,658.13
2018-04-02T15:31:18.446Z,646.88
2018-04-02T15:32:18.408Z,635.63
2018-04-02T15:33:18.393Z,624.38
2018-04-02T15:34:18.421Z,607.50
2018-04-02T15:36:18.398Z,585.00
2018-04-02T15:37:18.360Z,579.38
2018-04-02T15:38:18.366Z,562.50
2018-04-02T15:39:18.341Z,551.25
2018-04-02T15:40:18.360Z,540.00
2018-04-02T15:41:18.325Z,534.38
2018-04-02T15:42:18.328Z,517.50
2018-04-02T15:43:18.335Z,511.88
2018-04-02T15:44:18.307Z,495.00
2018-04-02T15:45:18.290Z,500.63
2018-04-02T15:46:18.286Z,506.25
2018-04-02T15:47:18.286Z,511.88
2018-04-02T15:48:18.261Z,511.88
2018-04-02T15:49:18.270Z,511.88
2018-04-02T15:50:18.242Z,511.88
2018-04-02T15:51:18.270Z,511.88
2018-04-02T15:52:18.258Z,511.88
2018-04-02T15:53:18.264Z,511.88
2018-04-02T15:54:18.211Z,517.50
2018-04-02T15:55:18.220Z,511.88
2018-04-02T15:56:18.219Z,511.88
2018-04-02T15:57:18.174Z,517.50
2018-04-02T15:58:18.169Z,517.50
2018-04-02T15:59:18.171Z,511.88
2018-04-02T16:00:18.166Z,506.25
2018-04-02T16:01:18.139Z,500.63
2018-04-02T16:02:18.162Z,489.38
2018-04-02T16:03:18.130Z,478.13
2018-04-02T16:04:18.125Z,466.88
2018-04-02T16:05:18.111Z,450.00
2018-04-02T16:06:18.123Z,421.88
2018-04-02T16:07:18.105Z,399.38
2018-04-02T16:08:18.089Z,376.88
2018-04-02T16:09:18.082Z,354.38
2018-04-02T16:10:18.095Z,326.25
2018-04-02T16:11:18.088Z,309.38
2018-04-02T16:12:18.040Z,298.13
2018-04-02T16:13:18.035Z,298.13
2018-04-02T16:14:18.031Z,309.38
2018-04-02T16:15:18.034Z,320.63
2018-04-02T16:16:18.047Z,326.25
2018-04-02T16:17:18.025Z,331.88
2018-04-02T16:18:17.983Z,337.50
2018-04-02T16:19:17.976Z,343.13
2018-04-02T16:20:17.966Z,343.13
2018-04-02T16:21:17.983Z,337.50
2018-04-02T16:22:17.951Z,326.25
2018-04-02T16:23:17.951Z,309.38
2018-04-02T16:24:17.935Z,286.88
2018-04-02T16:25:17.915Z,275.63
2018-04-02T16:26:17.931Z,258.75
2018-04-02T16:27:17.915Z,247.50
2018-04-02T16:28:17.908Z,230.63
2018-04-02T16:29:17.882Z,219.38
2018-04-02T16:30:17.875Z,213.75
2018-04-02T16:31:17.853Z,213.75
2018-04-02T16:32:17.846Z,219.38
2018-04-02T16:33:17.837Z,230.63
2018-04-02T16:34:17.839Z,241.88
2018-04-02T16:35:17.840Z,241.88
2018-04-02T16:36:17.818Z,236.25
2018-04-02T16:37:17.792Z,225.00
2018-04-02T16:38:17.827Z,208.13
2018-04-02T16:39:17.808Z,196.88
2018-04-02T16:40:17.776Z,185.63
2018-04-02T16:41:17.763Z,180.00
2018-04-02T16:42:17.758Z,174.38
2018-04-02T16:43:17.740Z,174.38
2018-04-02T16:44:17.750Z,168.75
2018-04-02T16:45:17.718Z,163.13
2018-04-02T16:46:17.692Z,157.50
2018-04-02T16:47:17.686Z,151.88
2018-04-02T16:48:17.680Z,146.25
2018-04-02T16:49:17.667Z,140.63
2018-04-02T16:50:17.738Z,135.00
2018-04-02T16:51:17.658Z,135.00
2018-04-02T16:52:17.638Z,129.38
2018-04-02T16:53:17.645Z,123.75
2018-04-02T16:54:17.686Z,123.75
2018-04-02T16:55:17.609Z,112.50
2018-04-02T16:56:17.597Z,106.88
2018-04-02T16:57:17.592Z,101.25
2018-04-02T16:58:17.575Z,95.63
2018-04-02T16:59:17.558Z,90.00
2018-04-02T17:00:17.552Z,90.00
2018-04-02T17:01:17.550Z,90.00
2018-04-02T17:02:17.529Z,95.63
2018-04-02T17:03:17.674Z,95.63
2018-04-02T17:04:17.539Z,95.63
2018-04-02T17:05:17.507Z,90.00
2018-04-02T17:06:17.482Z,84.38
2018-04-02T17:07:17.476Z,84.38
2018-04-02T17:08:17.492Z,78.75
2018-04-02T17:09:17.472Z,78.75
2018-04-02T17:10:17.459Z,78.75
2018-04-02T17:11:17.470Z,78.75
2018-04-02T17:12:17.431Z,73.13
2018-04-02T17:13:17.406Z,73.13
2018-04-02T17:14:17.395Z,67.50
2018-04-02T17:15:17.392Z,67.50
2018-04-02T17:16:17.408Z,61.88
2018-04-02T17:17:17.380Z,61.88
2018-04-02T17:18:17.354Z,61.88
2018-04-02T17:19:17.348Z,56.25
2018-04-02T17:20:17.354Z,56.25
2018-04-02T17:21:17.325Z,56.25
2018-04-02T17:22:17.317Z,56.25
2018-04-02T17:23:17.308Z,56.25
2018-04-02T17:24:17.282Z,56.25
2018-04-02T17:25:17.275Z,56.25
2018-04-02T17:26:18.971Z,56.25
2018-04-02T17:27:17.266Z,56.25
2018-04-02T17:28:17.237Z,50.63
2018-04-02T17:29:17.238Z,50.63
2018-04-02T17:30:17.232Z,50.63
2018-04-02T17:31:17.205Z,50.63
2018-04-02T17:32:17.221Z,50.63
2018-04-02T17:33:17.187Z,50.63
2018-04-02T17:34:17.178Z,45.00
2018-04-02T17:35:17.166Z,45.00
2018-04-02T17:36:17.147Z,45.00
2018-04-02T17:37:17.140Z,39.38
2018-04-02T17:38:17.151Z,39.38
2018-04-02T17:39:17.129Z,39.38
2018-04-02T17:40:17.118Z,33.75
2018-04-02T17:41:17.106Z,33.75
2018-04-02T17:42:17.084Z,28.13
2018-04-02T17:43:17.086Z,28.13
2018-04-02T17:44:17.073Z,28.13
2018-04-02T17:45:17.057Z,22.50
2018-04-02T17:46:17.054Z,22.50
2018-04-02T17:47:17.031Z,22.50
2018-04-02T17:48:17.025Z,16.88
2018-04-02T17:49:17.012Z,16.88
2018-04-02T17:50:16.993Z,16.88
2018-04-02T17:51:16.997Z,11.25
2018-04-02T17:52:16.980Z,11.25